sensor_id;sensor_type;location;lat;lon;timestamp;P1;durP1;ratioP1;P2;durP2;ratioP2
74059;SDS011;62414;53.436;8.828;2023-03-31T00:01:01;11.88;;;1.95;;
74059;SDS011;62414;53.436;8.828;2023-03-31T00:03:26;14.10;;;1.50;;
74059;SDS011;62414;53.436;8.828;2023-03-31T00:05:55;15.10;;;1.90;;
74059;SDS011;62414;53.436;8.828;2023-03-31T00:08:22;14.15;;;2.17;;
74059;SDS011;62414;53.436;8.828;2023-03-31T00:10:47;19.52;;;1.90;;
74059;SDS011;62414;53.436;8.828;2023-03-31T00:13:13;12.53;;;1.50;;
74059;SDS011;62414;53.436;8.828;2023-03-31T00:15:39;13.15;;;1.80;;
74059;SDS011;62414;53.436;8.828;2023-03-31T00:18:04;14.53;;;1.87;;
74059;SDS011;62414;53.436;8.828;2023-03-31T00:20:30;16.63;;;1.83;;
74059;SDS011;62414;53.436;8.828;2023-03-31T00:22:55;12.53;;;1.67;;
74059;SDS011;62414;53.436;8.828;2023-03-31T00:25:22;12.17;;;1.70;;
74059;SDS011;62414;53.436;8.828;2023-03-31T00:27:48;13.77;;;1.80;;
74059;SDS011;62414;53.436;8.828;2023-03-31T00:30:13;14.10;;;1.90;;
74059;SDS011;62414;53.436;8.828;2023-03-31T00:32:39;16.20;;;1.87;;
74059;SDS011;62414;53.436;8.828;2023-03-31T00:35:05;10.98;;;1.60;;
74059;SDS011;62414;53.436;8.828;2023-03-31T00:37:30;14.93;;;2.10;;
74059;SDS011;62414;53.436;8.828;2023-03-31T00:39:56;15.75;;;1.60;;
74059;SDS011;62414;53.436;8.828;2023-03-31T00:42:23;12.20;;;2.50;;
74059;SDS011;62414;53.436;8.828;2023-03-31T00:47:49;14.50;;;1.75;;
74059;SDS011;62414;53.436;8.828;2023-03-31T00:50:16;15.05;;;2.08;;
74059;SDS011;62414;53.436;8.828;2023-03-31T00:52:43;17.75;;;2.60;;
74059;SDS011;62414;53.436;8.828;2023-03-31T00:55:10;13.30;;;2.20;;
74059;SDS011;62414;53.436;8.828;2023-03-31T00:57:40;15.20;;;1.95;;
74059;SDS011;62414;53.436;8.828;2023-03-31T01:00:07;18.30;;;2.28;;
74059;SDS011;62414;53.436;8.828;2023-03-31T01:02:34;16.30;;;1.90;;
74059;SDS011;62414;53.436;8.828;2023-03-31T01:04:59;14.87;;;1.80;;
74059;SDS011;62414;53.436;8.828;2023-03-31T01:07:26;18.88;;;2.22;;
74059;SDS011;62414;53.436;8.828;2023-03-31T01:09:55;18.98;;;2.35;;
74059;SDS011;62414;53.436;8.828;2023-03-31T01:12:21;14.63;;;2.10;;
74059;SDS011;62414;53.436;8.828;2023-03-31T01:14:50;14.07;;;2.13;;
74059;SDS011;62414;53.436;8.828;2023-03-31T01:17:16;16.33;;;1.90;;
74059;SDS011;62414;53.436;8.828;2023-03-31T01:19:47;15.30;;;2.40;;
74059;SDS011;62414;53.436;8.828;2023-03-31T01:22:27;17.92;;;2.80;;
74059;SDS011;62414;53.436;8.828;2023-03-31T01:25:30;14.73;;;2.30;;
74059;SDS011;62414;53.436;8.828;2023-03-31T01:28:11;14.50;;;2.17;;
74059;SDS011;62414;53.436;8.828;2023-03-31T01:33:50;15.90;;;2.33;;
74059;SDS011;62414;53.436;8.828;2023-03-31T01:42:40;12.70;;;2.10;;
74059;SDS011;62414;53.436;8.828;2023-03-31T01:45:11;21.13;;;2.15;;
74059;SDS011;62414;53.436;8.828;2023-03-31T01:47:44;15.23;;;1.92;;
74059;SDS011;62414;53.436;8.828;2023-03-31T01:50:13;12.15;;;2.05;;
74059;SDS011;62414;53.436;8.828;2023-03-31T01:52:44;15.73;;;2.30;;
74059;SDS011;62414;53.436;8.828;2023-03-31T01:55:11;14.68;;;1.90;;
74059;SDS011;62414;53.436;8.828;2023-03-31T01:57:44;16.05;;;1.98;;
74059;SDS011;62414;53.436;8.828;2023-03-31T02:00:12;16.38;;;2.00;;
74059;SDS011;62414;53.436;8.828;2023-03-31T02:02:40;14.55;;;2.00;;
74059;SDS011;62414;53.436;8.828;2023-03-31T02:05:08;12.63;;;1.97;;
74059;SDS011;62414;53.436;8.828;2023-03-31T02:07:36;11.55;;;1.90;;
74059;SDS011;62414;53.436;8.828;2023-03-31T02:10:06;14.30;;;2.00;;
74059;SDS011;62414;53.436;8.828;2023-03-31T02:12:35;17.30;;;2.47;;
74059;SDS011;62414;53.436;8.828;2023-03-31T02:15:03;15.65;;;2.30;;
74059;SDS011;62414;53.436;8.828;2023-03-31T02:17:32;12.43;;;1.93;;
74059;SDS011;62414;53.436;8.828;2023-03-31T02:19:59;15.35;;;2.20;;
74059;SDS011;62414;53.436;8.828;2023-03-31T02:22:30;15.23;;;2.08;;
74059;SDS011;62414;53.436;8.828;2023-03-31T02:24:58;11.07;;;2.23;;
74059;SDS011;62414;53.436;8.828;2023-03-31T02:27:25;17.55;;;2.30;;
74059;SDS011;62414;53.436;8.828;2023-03-31T02:29:54;18.52;;;2.53;;
74059;SDS011;62414;53.436;8.828;2023-03-31T02:32:20;15.48;;;2.38;;
74059;SDS011;62414;53.436;8.828;2023-03-31T02:34:47;11.80;;;2.00;;
74059;SDS011;62414;53.436;8.828;2023-03-31T02:37:13;14.57;;;2.63;;
74059;SDS011;62414;53.436;8.828;2023-03-31T02:39:43;21.48;;;2.75;;
74059;SDS011;62414;53.436;8.828;2023-03-31T02:42:10;12.15;;;1.98;;
74059;SDS011;62414;53.436;8.828;2023-03-31T02:44:36;13.23;;;2.20;;
74059;SDS011;62414;53.436;8.828;2023-03-31T02:47:04;13.90;;;2.35;;
74059;SDS011;62414;53.436;8.828;2023-03-31T02:49:32;14.52;;;2.60;;
74059;SDS011;62414;53.436;8.828;2023-03-31T02:52:10;12.65;;;2.15;;
74059;SDS011;62414;53.436;8.828;2023-03-31T02:57:52;16.25;;;2.30;;
74059;SDS011;62414;53.436;8.828;2023-03-31T03:00:38;11.73;;;2.30;;
74059;SDS011;62414;53.436;8.828;2023-03-31T03:03:15;14.05;;;2.58;;
74059;SDS011;62414;53.436;8.828;2023-03-31T03:05:48;10.68;;;1.77;;
74059;SDS011;62414;53.436;8.828;2023-03-31T03:08:35;19.00;;;2.37;;
74059;SDS011;62414;53.436;8.828;2023-03-31T03:11:12;16.85;;;2.30;;
74059;SDS011;62414;53.436;8.828;2023-03-31T03:13:40;13.25;;;2.28;;
74059;SDS011;62414;53.436;8.828;2023-03-31T03:16:09;16.83;;;2.50;;
74059;SDS011;62414;53.436;8.828;2023-03-31T03:18:37;16.75;;;2.30;;
74059;SDS011;62414;53.436;8.828;2023-03-31T03:21:03;14.90;;;2.33;;
74059;SDS011;62414;53.436;8.828;2023-03-31T03:23:29;11.43;;;1.90;;
74059;SDS011;62414;53.436;8.828;2023-03-31T03:25:54;13.07;;;2.77;;
74059;SDS011;62414;53.436;8.828;2023-03-31T03:28:20;16.07;;;3.03;;
74059;SDS011;62414;53.436;8.828;2023-03-31T03:30:45;17.55;;;3.60;;
74059;SDS011;62414;53.436;8.828;2023-03-31T03:33:11;15.77;;;3.07;;
74059;SDS011;62414;53.436;8.828;2023-03-31T03:35:37;12.20;;;2.90;;
74059;SDS011;62414;53.436;8.828;2023-03-31T03:38:03;16.60;;;3.55;;
74059;SDS011;62414;53.436;8.828;2023-03-31T03:40:28;13.13;;;2.80;;
74059;SDS011;62414;53.436;8.828;2023-03-31T03:42:54;14.02;;;3.30;;
74059;SDS011;62414;53.436;8.828;2023-03-31T03:45:19;13.20;;;2.90;;
74059;SDS011;62414;53.436;8.828;2023-03-31T03:47:45;15.90;;;3.37;;
74059;SDS011;62414;53.436;8.828;2023-03-31T03:50:10;11.35;;;3.03;;
74059;SDS011;62414;53.436;8.828;2023-03-31T03:52:37;18.13;;;3.43;;
74059;SDS011;62414;53.436;8.828;2023-03-31T03:55:03;17.42;;;3.50;;
74059;SDS011;62414;53.436;8.828;2023-03-31T03:57:29;15.27;;;3.50;;
74059;SDS011;62414;53.436;8.828;2023-03-31T03:59:54;13.07;;;3.37;;
74059;SDS011;62414;53.436;8.828;2023-03-31T04:02:20;16.17;;;3.40;;
74059;SDS011;62414;53.436;8.828;2023-03-31T04:04:45;18.58;;;3.67;;
74059;SDS011;62414;53.436;8.828;2023-03-31T04:07:10;12.50;;;3.10;;
74059;SDS011;62414;53.436;8.828;2023-03-31T04:09:37;17.37;;;3.40;;
74059;SDS011;62414;53.436;8.828;2023-03-31T04:12:03;15.43;;;3.38;;
74059;SDS011;62414;53.436;8.828;2023-03-31T04:14:29;14.75;;;3.20;;
74059;SDS011;62414;53.436;8.828;2023-03-31T04:16:54;15.73;;;3.20;;
74059;SDS011;62414;53.436;8.828;2023-03-31T04:19:19;16.77;;;3.60;;
74059;SDS011;62414;53.436;8.828;2023-03-31T04:21:45;14.15;;;3.50;;
74059;SDS011;62414;53.436;8.828;2023-03-31T04:24:10;14.27;;;3.53;;
74059;SDS011;62414;53.436;8.828;2023-03-31T04:26:38;15.38;;;3.55;;
74059;SDS011;62414;53.436;8.828;2023-03-31T04:29:03;19.77;;;3.60;;
74059;SDS011;62414;53.436;8.828;2023-03-31T04:31:29;17.42;;;3.40;;
74059;SDS011;62414;53.436;8.828;2023-03-31T04:33:55;15.80;;;3.70;;
74059;SDS011;62414;53.436;8.828;2023-03-31T04:36:20;16.13;;;3.28;;
74059;SDS011;62414;53.436;8.828;2023-03-31T04:38:47;11.23;;;3.08;;
74059;SDS011;62414;53.436;8.828;2023-03-31T04:41:14;15.03;;;3.20;;
74059;SDS011;62414;53.436;8.828;2023-03-31T04:43:41;17.27;;;3.22;;
74059;SDS011;62414;53.436;8.828;2023-03-31T04:46:06;13.07;;;3.30;;
74059;SDS011;62414;53.436;8.828;2023-03-31T04:48:32;14.93;;;2.63;;
74059;SDS011;62414;53.436;8.828;2023-03-31T04:50:57;18.17;;;3.23;;
74059;SDS011;62414;53.436;8.828;2023-03-31T04:53:23;12.63;;;3.08;;
74059;SDS011;62414;53.436;8.828;2023-03-31T04:55:48;14.23;;;2.83;;
74059;SDS011;62414;53.436;8.828;2023-03-31T04:58:14;11.00;;;2.50;;
74059;SDS011;62414;53.436;8.828;2023-03-31T05:00:41;11.23;;;2.83;;
74059;SDS011;62414;53.436;8.828;2023-03-31T05:03:06;12.57;;;2.90;;
74059;SDS011;62414;53.436;8.828;2023-03-31T05:05:32;14.50;;;3.50;;
74059;SDS011;62414;53.436;8.828;2023-03-31T05:07:57;13.13;;;2.97;;
74059;SDS011;62414;53.436;8.828;2023-03-31T05:10:23;16.47;;;4.47;;
74059;SDS011;62414;53.436;8.828;2023-03-31T05:12:48;16.63;;;4.33;;
74059;SDS011;62414;53.436;8.828;2023-03-31T05:15:14;16.67;;;3.40;;
74059;SDS011;62414;53.436;8.828;2023-03-31T05:17:41;17.77;;;4.20;;
74059;SDS011;62414;53.436;8.828;2023-03-31T05:20:07;16.65;;;3.30;;
74059;SDS011;62414;53.436;8.828;2023-03-31T05:22:33;16.25;;;3.10;;
74059;SDS011;62414;53.436;8.828;2023-03-31T05:24:59;11.52;;;2.63;;
74059;SDS011;62414;53.436;8.828;2023-03-31T05:27:25;10.73;;;2.43;;
74059;SDS011;62414;53.436;8.828;2023-03-31T05:29:50;10.47;;;2.40;;
74059;SDS011;62414;53.436;8.828;2023-03-31T05:32:16;12.60;;;2.40;;
74059;SDS011;62414;53.436;8.828;2023-03-31T05:34:43;13.40;;;2.42;;
74059;SDS011;62414;53.436;8.828;2023-03-31T05:37:08;14.13;;;2.90;;
74059;SDS011;62414;53.436;8.828;2023-03-31T05:39:33;7.43;;;2.10;;
74059;SDS011;62414;53.436;8.828;2023-03-31T05:41:59;10.97;;;2.53;;
74059;SDS011;62414;53.436;8.828;2023-03-31T05:44:24;10.90;;;2.60;;
74059;SDS011;62414;53.436;8.828;2023-03-31T05:46:50;11.27;;;2.57;;
74059;SDS011;62414;53.436;8.828;2023-03-31T05:49:16;13.57;;;2.23;;
74059;SDS011;62414;53.436;8.828;2023-03-31T05:51:42;9.63;;;2.08;;
74059;SDS011;62414;53.436;8.828;2023-03-31T05:54:08;15.73;;;2.13;;
74059;SDS011;62414;53.436;8.828;2023-03-31T05:56:33;10.17;;;1.97;;
74059;SDS011;62414;53.436;8.828;2023-03-31T05:58:59;10.30;;;1.87;;
74059;SDS011;62414;53.436;8.828;2023-03-31T06:01:24;8.73;;;1.75;;
74059;SDS011;62414;53.436;8.828;2023-03-31T06:03:50;11.70;;;2.10;;
74059;SDS011;62414;53.436;8.828;2023-03-31T06:06:15;11.37;;;2.07;;
74059;SDS011;62414;53.436;8.828;2023-03-31T06:08:43;9.48;;;1.88;;
74059;SDS011;62414;53.436;8.828;2023-03-31T06:11:11;10.53;;;2.20;;
74059;SDS011;62414;53.436;8.828;2023-03-31T06:13:38;7.95;;;1.75;;
74059;SDS011;62414;53.436;8.828;2023-03-31T06:16:05;13.95;;;2.30;;
74059;SDS011;62414;53.436;8.828;2023-03-31T06:18:31;14.45;;;2.10;;
74059;SDS011;62414;53.436;8.828;2023-03-31T06:20:58;11.38;;;2.30;;
74059;SDS011;62414;53.436;8.828;2023-03-31T06:23:23;10.60;;;2.10;;
74059;SDS011;62414;53.436;8.828;2023-03-31T06:25:51;9.05;;;2.30;;
74059;SDS011;62414;53.436;8.828;2023-03-31T06:28:17;13.90;;;2.33;;
74059;SDS011;62414;53.436;8.828;2023-03-31T06:30:42;11.20;;;2.60;;
74059;SDS011;62414;53.436;8.828;2023-03-31T06:33:08;12.30;;;3.05;;
74059;SDS011;62414;53.436;8.828;2023-03-31T06:35:36;13.87;;;3.07;;
74059;SDS011;62414;53.436;8.828;2023-03-31T06:38:02;10.48;;;2.97;;
74059;SDS011;62414;53.436;8.828;2023-03-31T06:40:27;14.00;;;3.70;;
74059;SDS011;62414;53.436;8.828;2023-03-31T06:42:54;13.47;;;4.50;;
74059;SDS011;62414;53.436;8.828;2023-03-31T06:45:20;14.77;;;4.60;;
74059;SDS011;62414;53.436;8.828;2023-03-31T06:47:46;13.70;;;4.28;;
74059;SDS011;62414;53.436;8.828;2023-03-31T06:50:11;16.70;;;4.90;;
74059;SDS011;62414;53.436;8.828;2023-03-31T06:52:37;20.13;;;5.68;;
74059;SDS011;62414;53.436;8.828;2023-03-31T06:55:03;19.03;;;6.40;;
74059;SDS011;62414;53.436;8.828;2023-03-31T06:57:28;20.15;;;6.93;;
74059;SDS011;62414;53.436;8.828;2023-03-31T06:59:55;23.03;;;6.97;;
74059;SDS011;62414;53.436;8.828;2023-03-31T07:02:21;25.25;;;7.80;;
74059;SDS011;62414;53.436;8.828;2023-03-31T07:04:46;25.67;;;9.60;;
74059;SDS011;62414;53.436;8.828;2023-03-31T07:07:12;25.35;;;9.13;;
74059;SDS011;62414;53.436;8.828;2023-03-31T07:09:37;27.00;;;9.00;;
74059;SDS011;62414;53.436;8.828;2023-03-31T07:12:03;26.03;;;9.40;;
74059;SDS011;62414;53.436;8.828;2023-03-31T07:14:28;33.85;;;11.13;;
74059;SDS011;62414;53.436;8.828;2023-03-31T07:16:55;29.70;;;11.60;;
74059;SDS011;62414;53.436;8.828;2023-03-31T07:19:20;29.73;;;11.77;;
74059;SDS011;62414;53.436;8.828;2023-03-31T07:21:46;32.97;;;11.77;;
74059;SDS011;62414;53.436;8.828;2023-03-31T07:24:11;30.20;;;12.00;;
74059;SDS011;62414;53.436;8.828;2023-03-31T07:26:37;33.70;;;12.43;;
74059;SDS011;62414;53.436;8.828;2023-03-31T07:29:02;32.57;;;12.77;;
74059;SDS011;62414;53.436;8.828;2023-03-31T07:31:28;38.83;;;14.37;;
74059;SDS011;62414;53.436;8.828;2023-03-31T07:33:55;29.83;;;12.38;;
74059;SDS011;62414;53.436;8.828;2023-03-31T07:36:20;31.90;;;13.48;;
74059;SDS011;62414;53.436;8.828;2023-03-31T07:38:46;33.77;;;12.93;;
74059;SDS011;62414;53.436;8.828;2023-03-31T07:41:12;37.33;;;13.23;;
74059;SDS011;62414;53.436;8.828;2023-03-31T07:43:39;36.35;;;13.75;;
74059;SDS011;62414;53.436;8.828;2023-03-31T07:46:05;37.90;;;13.20;;
74059;SDS011;62414;53.436;8.828;2023-03-31T07:48:31;34.22;;;13.82;;
74059;SDS011;62414;53.436;8.828;2023-03-31T07:50:58;40.57;;;13.73;;
74059;SDS011;62414;53.436;8.828;2023-03-31T07:53:29;36.78;;;13.57;;
74059;SDS011;62414;53.436;8.828;2023-03-31T07:55:55;35.30;;;13.20;;
74059;SDS011;62414;53.436;8.828;2023-03-31T07:58:20;33.75;;;13.27;;
74059;SDS011;62414;53.436;8.828;2023-03-31T08:00:46;32.63;;;13.37;;
74059;SDS011;62414;53.436;8.828;2023-03-31T08:03:11;34.27;;;12.97;;
74059;SDS011;62414;53.436;8.828;2023-03-31T08:05:36;37.87;;;13.73;;
74059;SDS011;62414;53.436;8.828;2023-03-31T08:08:03;35.63;;;13.90;;
74059;SDS011;62414;53.436;8.828;2023-03-31T08:10:29;37.03;;;13.88;;
74059;SDS011;62414;53.436;8.828;2023-03-31T08:12:54;34.13;;;13.50;;
74059;SDS011;62414;53.436;8.828;2023-03-31T08:15:20;29.77;;;13.63;;
74059;SDS011;62414;53.436;8.828;2023-03-31T08:17:45;29.63;;;12.25;;
74059;SDS011;62414;53.436;8.828;2023-03-31T08:20:11;31.93;;;12.17;;
74059;SDS011;62414;53.436;8.828;2023-03-31T08:22:37;31.15;;;12.40;;
74059;SDS011;62414;53.436;8.828;2023-03-31T08:25:05;32.55;;;12.57;;
74059;SDS011;62414;53.436;8.828;2023-03-31T08:27:32;28.77;;;12.23;;
74059;SDS011;62414;53.436;8.828;2023-03-31T08:29:57;28.65;;;11.80;;
74059;SDS011;62414;53.436;8.828;2023-03-31T08:32:23;27.70;;;11.90;;
74059;SDS011;62414;53.436;8.828;2023-03-31T08:34:48;26.48;;;11.75;;
74059;SDS011;62414;53.436;8.828;2023-03-31T08:37:15;25.27;;;11.20;;
74059;SDS011;62414;53.436;8.828;2023-03-31T08:39:40;25.73;;;11.07;;
74059;SDS011;62414;53.436;8.828;2023-03-31T08:42:08;25.23;;;11.13;;
74059;SDS011;62414;53.436;8.828;2023-03-31T08:44:37;26.75;;;11.85;;
74059;SDS011;62414;53.436;8.828;2023-03-31T08:47:06;28.52;;;12.32;;
74059;SDS011;62414;53.436;8.828;2023-03-31T08:49:38;30.15;;;13.23;;
74059;SDS011;62414;53.436;8.828;2023-03-31T08:52:06;29.03;;;12.43;;
74059;SDS011;62414;53.436;8.828;2023-03-31T08:54:35;28.45;;;12.80;;
74059;SDS011;62414;53.436;8.828;2023-03-31T08:57:02;27.02;;;12.27;;
74059;SDS011;62414;53.436;8.828;2023-03-31T08:59:32;28.20;;;12.15;;
74059;SDS011;62414;53.436;8.828;2023-03-31T09:01:59;26.42;;;12.70;;
74059;SDS011;62414;53.436;8.828;2023-03-31T09:04:35;30.93;;;12.97;;
74059;SDS011;62414;53.436;8.828;2023-03-31T09:07:11;28.65;;;13.25;;
74059;SDS011;62414;53.436;8.828;2023-03-31T09:09:41;26.58;;;12.63;;
74059;SDS011;62414;53.436;8.828;2023-03-31T09:12:13;26.90;;;12.10;;
74059;SDS011;62414;53.436;8.828;2023-03-31T09:14:44;30.52;;;12.93;;
74059;SDS011;62414;53.436;8.828;2023-03-31T09:17:15;25.23;;;11.87;;
74059;SDS011;62414;53.436;8.828;2023-03-31T09:19:47;26.20;;;11.65;;
74059;SDS011;62414;53.436;8.828;2023-03-31T09:22:15;26.98;;;12.15;;
74059;SDS011;62414;53.436;8.828;2023-03-31T09:24:47;24.55;;;11.40;;
74059;SDS011;62414;53.436;8.828;2023-03-31T09:27:15;24.95;;;11.40;;
74059;SDS011;62414;53.436;8.828;2023-03-31T09:29:41;25.50;;;12.13;;
74059;SDS011;62414;53.436;8.828;2023-03-31T09:32:13;20.58;;;10.18;;
74059;SDS011;62414;53.436;8.828;2023-03-31T09:34:39;26.13;;;11.10;;
74059;SDS011;62414;53.436;8.828;2023-03-31T09:37:05;19.87;;;9.83;;
74059;SDS011;62414;53.436;8.828;2023-03-31T09:39:30;22.57;;;10.00;;
74059;SDS011;62414;53.436;8.828;2023-03-31T09:41:56;22.48;;;9.75;;
74059;SDS011;62414;53.436;8.828;2023-03-31T09:44:22;19.30;;;8.87;;
74059;SDS011;62414;53.436;8.828;2023-03-31T09:46:52;22.05;;;9.25;;
74059;SDS011;62414;53.436;8.828;2023-03-31T09:49:19;21.73;;;9.25;;
74059;SDS011;62414;53.436;8.828;2023-03-31T09:51:47;17.97;;;8.03;;
74059;SDS011;62414;53.436;8.828;2023-03-31T09:54:15;18.58;;;7.78;;
74059;SDS011;62414;53.436;8.828;2023-03-31T09:56:44;18.52;;;7.90;;
74059;SDS011;62414;53.436;8.828;2023-03-31T09:59:13;15.98;;;7.65;;
74059;SDS011;62414;53.436;8.828;2023-03-31T10:01:39;15.52;;;7.32;;
74059;SDS011;62414;53.436;8.828;2023-03-31T10:04:07;22.07;;;8.37;;
74059;SDS011;62414;53.436;8.828;2023-03-31T10:06:32;18.55;;;7.93;;
74059;SDS011;62414;53.436;8.828;2023-03-31T10:09:04;20.55;;;8.15;;
74059;SDS011;62414;53.436;8.828;2023-03-31T10:11:31;16.07;;;7.30;;
74059;SDS011;62414;53.436;8.828;2023-03-31T10:13:58;17.98;;;7.57;;
74059;SDS011;62414;53.436;8.828;2023-03-31T10:16:27;16.10;;;7.47;;
74059;SDS011;62414;53.436;8.828;2023-03-31T10:18:55;18.57;;;7.93;;
74059;SDS011;62414;53.436;8.828;2023-03-31T10:21:37;18.55;;;7.65;;
74059;SDS011;62414;53.436;8.828;2023-03-31T10:24:06;18.60;;;8.02;;
74059;SDS011;62414;53.436;8.828;2023-03-31T10:26:32;16.77;;;7.63;;
74059;SDS011;62414;53.436;8.828;2023-03-31T10:28:58;21.60;;;8.15;;
74059;SDS011;62414;53.436;8.828;2023-03-31T10:31:24;16.50;;;7.50;;
74059;SDS011;62414;53.436;8.828;2023-03-31T10:33:51;16.45;;;7.28;;
74059;SDS011;62414;53.436;8.828;2023-03-31T10:36:20;18.17;;;7.68;;
74059;SDS011;62414;53.436;8.828;2023-03-31T10:38:46;16.43;;;7.53;;
74059;SDS011;62414;53.436;8.828;2023-03-31T10:41:13;15.57;;;7.15;;
74059;SDS011;62414;53.436;8.828;2023-03-31T10:43:43;18.80;;;7.55;;
74059;SDS011;62414;53.436;8.828;2023-03-31T10:46:12;16.13;;;6.70;;
74059;SDS011;62414;53.436;8.828;2023-03-31T10:48:39;13.13;;;5.80;;
74059;SDS011;62414;53.436;8.828;2023-03-31T10:51:09;12.65;;;5.15;;
74059;SDS011;62414;53.436;8.828;2023-03-31T10:53:40;11.10;;;4.65;;
74059;SDS011;62414;53.436;8.828;2023-03-31T10:56:13;9.10;;;4.28;;
74059;SDS011;62414;53.436;8.828;2023-03-31T10:58:50;11.47;;;3.93;;
74059;SDS011;62414;53.436;8.828;2023-03-31T11:01:27;9.02;;;4.50;;
74059;SDS011;62414;53.436;8.828;2023-03-31T11:04:11;11.55;;;4.25;;
74059;SDS011;62414;53.436;8.828;2023-03-31T11:06:46;10.00;;;4.57;;
74059;SDS011;62414;53.436;8.828;2023-03-31T11:09:21;9.75;;;4.78;;
74059;SDS011;62414;53.436;8.828;2023-03-31T11:11:59;11.63;;;5.20;;
74059;SDS011;62414;53.436;8.828;2023-03-31T11:14:32;10.00;;;4.93;;
74059;SDS011;62414;53.436;8.828;2023-03-31T11:17:05;10.43;;;4.88;;
74059;SDS011;62414;53.436;8.828;2023-03-31T11:19:36;9.88;;;4.72;;
74059;SDS011;62414;53.436;8.828;2023-03-31T11:22:08;9.40;;;4.80;;
74059;SDS011;62414;53.436;8.828;2023-03-31T11:24:41;9.90;;;5.40;;
74059;SDS011;62414;53.436;8.828;2023-03-31T11:27:22;9.85;;;5.07;;
74059;SDS011;62414;53.436;8.828;2023-03-31T11:29:56;10.80;;;5.05;;
74059;SDS011;62414;53.436;8.828;2023-03-31T11:32:28;8.75;;;5.40;;
74059;SDS011;62414;53.436;8.828;2023-03-31T11:35:13;11.40;;;5.50;;
74059;SDS011;62414;53.436;8.828;2023-03-31T11:37:49;11.57;;;5.80;;
74059;SDS011;62414;53.436;8.828;2023-03-31T11:40:29;12.95;;;6.03;;
74059;SDS011;62414;53.436;8.828;2023-03-31T11:43:01;14.15;;;6.80;;
74059;SDS011;62414;53.436;8.828;2023-03-31T11:45:30;13.75;;;6.65;;
74059;SDS011;62414;53.436;8.828;2023-03-31T11:47:59;11.73;;;6.45;;
74059;SDS011;62414;53.436;8.828;2023-03-31T11:50:28;13.73;;;7.00;;
74059;SDS011;62414;53.436;8.828;2023-03-31T11:52:56;13.80;;;6.63;;
74059;SDS011;62414;53.436;8.828;2023-03-31T11:55:24;11.63;;;6.68;;
74059;SDS011;62414;53.436;8.828;2023-03-31T11:57:53;11.60;;;6.30;;
74059;SDS011;62414;53.436;8.828;2023-03-31T12:00:25;10.40;;;5.90;;
74059;SDS011;62414;53.436;8.828;2023-03-31T12:02:52;13.77;;;6.43;;
74059;SDS011;62414;53.436;8.828;2023-03-31T12:05:19;10.38;;;5.93;;
74059;SDS011;62414;53.436;8.828;2023-03-31T12:07:46;13.68;;;6.65;;
74059;SDS011;62414;53.436;8.828;2023-03-31T12:10:18;12.30;;;6.20;;
74059;SDS011;62414;53.436;8.828;2023-03-31T12:12:45;11.75;;;5.75;;
74059;SDS011;62414;53.436;8.828;2023-03-31T12:15:18;11.70;;;5.80;;
74059;SDS011;62414;53.436;8.828;2023-03-31T12:17:46;13.48;;;5.57;;
74059;SDS011;62414;53.436;8.828;2023-03-31T12:20:16;11.77;;;4.90;;
74059;SDS011;62414;53.436;8.828;2023-03-31T12:22:46;11.82;;;5.43;;
74059;SDS011;62414;53.436;8.828;2023-03-31T12:25:12;12.52;;;5.22;;
74059;SDS011;62414;53.436;8.828;2023-03-31T12:27:38;9.00;;;4.63;;
74059;SDS011;62414;53.436;8.828;2023-03-31T12:30:05;10.68;;;4.60;;
74059;SDS011;62414;53.436;8.828;2023-03-31T12:32:35;10.13;;;4.97;;
74059;SDS011;62414;53.436;8.828;2023-03-31T12:35:04;10.20;;;4.57;;
74059;SDS011;62414;53.436;8.828;2023-03-31T12:37:46;11.38;;;4.50;;
74059;SDS011;62414;53.436;8.828;2023-03-31T12:40:23;8.10;;;4.90;;
74059;SDS011;62414;53.436;8.828;2023-03-31T12:43:06;9.63;;;4.80;;
74059;SDS011;62414;53.436;8.828;2023-03-31T12:45:36;9.98;;;4.60;;
74059;SDS011;62414;53.436;8.828;2023-03-31T12:51:07;10.13;;;4.72;;
74059;SDS011;62414;53.436;8.828;2023-03-31T12:53:42;12.07;;;5.10;;
74059;SDS011;62414;53.436;8.828;2023-03-31T12:56:13;10.10;;;4.60;;
74059;SDS011;62414;53.436;8.828;2023-03-31T12:58:39;12.93;;;5.57;;
74059;SDS011;62414;53.436;8.828;2023-03-31T13:01:07;10.53;;;5.83;;
74059;SDS011;62414;53.436;8.828;2023-03-31T13:03:42;11.65;;;5.95;;
74059;SDS011;62414;53.436;8.828;2023-03-31T13:12:14;13.25;;;5.35;;
74059;SDS011;62414;53.436;8.828;2023-03-31T13:14:41;14.27;;;6.20;;
74059;SDS011;62414;53.436;8.828;2023-03-31T13:17:11;11.77;;;5.32;;
74059;SDS011;62414;53.436;8.828;2023-03-31T13:19:44;12.35;;;5.78;;
74059;SDS011;62414;53.436;8.828;2023-03-31T13:22:25;13.27;;;6.07;;
74059;SDS011;62414;53.436;8.828;2023-03-31T13:24:53;14.77;;;6.93;;
74059;SDS011;62414;53.436;8.828;2023-03-31T13:27:28;15.80;;;6.93;;
74059;SDS011;62414;53.436;8.828;2023-03-31T13:29:54;16.08;;;6.95;;
74059;SDS011;62414;53.436;8.828;2023-03-31T13:32:20;16.97;;;6.63;;
74059;SDS011;62414;53.436;8.828;2023-03-31T13:34:58;13.88;;;6.25;;
74059;SDS011;62414;53.436;8.828;2023-03-31T13:37:44;11.95;;;6.13;;
74059;SDS011;62414;53.436;8.828;2023-03-31T13:40:25;12.80;;;5.77;;
74059;SDS011;62414;53.436;8.828;2023-03-31T13:43:01;12.02;;;5.97;;
74059;SDS011;62414;53.436;8.828;2023-03-31T13:45:53;14.52;;;5.80;;
74059;SDS011;62414;53.436;8.828;2023-03-31T13:48:32;11.10;;;5.22;;
74059;SDS011;62414;53.436;8.828;2023-03-31T13:51:14;12.35;;;4.93;;
74059;SDS011;62414;53.436;8.828;2023-03-31T13:53:58;9.33;;;5.03;;
74059;SDS011;62414;53.436;8.828;2023-03-31T13:56:38;9.50;;;4.72;;
74059;SDS011;62414;53.436;8.828;2023-03-31T14:02:04;9.07;;;3.85;;
74059;SDS011;62414;53.436;8.828;2023-03-31T14:07:36;10.63;;;4.10;;
74059;SDS011;62414;53.436;8.828;2023-03-31T14:10:03;6.55;;;3.08;;
74059;SDS011;62414;53.436;8.828;2023-03-31T14:12:29;6.85;;;2.83;;
74059;SDS011;62414;53.436;8.828;2023-03-31T14:14:56;7.03;;;2.85;;
74059;SDS011;62414;53.436;8.828;2023-03-31T14:17:22;7.45;;;3.17;;
74059;SDS011;62414;53.436;8.828;2023-03-31T14:19:54;9.03;;;3.20;;
74059;SDS011;62414;53.436;8.828;2023-03-31T14:22:27;6.80;;;3.17;;
74059;SDS011;62414;53.436;8.828;2023-03-31T14:25:01;6.78;;;2.88;;
74059;SDS011;62414;53.436;8.828;2023-03-31T14:27:37;6.28;;;3.22;;
74059;SDS011;62414;53.436;8.828;2023-03-31T14:30:10;6.95;;;3.00;;
74059;SDS011;62414;53.436;8.828;2023-03-31T14:32:41;8.17;;;3.53;;
74059;SDS011;62414;53.436;8.828;2023-03-31T14:35:18;8.15;;;2.92;;
74059;SDS011;62414;53.436;8.828;2023-03-31T14:37:48;5.57;;;2.42;;
74059;SDS011;62414;53.436;8.828;2023-03-31T14:40:15;6.90;;;2.90;;
74059;SDS011;62414;53.436;8.828;2023-03-31T14:42:41;6.85;;;2.67;;
74059;SDS011;62414;53.436;8.828;2023-03-31T14:45:14;5.25;;;2.60;;
74059;SDS011;62414;53.436;8.828;2023-03-31T14:47:41;7.15;;;2.50;;
74059;SDS011;62414;53.436;8.828;2023-03-31T14:50:10;6.23;;;2.40;;
74059;SDS011;62414;53.436;8.828;2023-03-31T14:52:39;7.43;;;2.50;;
74059;SDS011;62414;53.436;8.828;2023-03-31T14:55:05;6.72;;;2.53;;
74059;SDS011;62414;53.436;8.828;2023-03-31T14:57:33;8.77;;;2.73;;
74059;SDS011;62414;53.436;8.828;2023-03-31T15:00:00;7.03;;;2.78;;
74059;SDS011;62414;53.436;8.828;2023-03-31T15:02:29;6.63;;;2.45;;
74059;SDS011;62414;53.436;8.828;2023-03-31T15:04:56;7.72;;;2.35;;
74059;SDS011;62414;53.436;8.828;2023-03-31T15:07:22;7.97;;;2.30;;
74059;SDS011;62414;53.436;8.828;2023-03-31T15:09:48;7.93;;;2.25;;
74059;SDS011;62414;53.436;8.828;2023-03-31T15:12:14;7.15;;;2.25;;